createdAt,value
2019-02-12T00:00:56.909Z,39.28
2019-02-12T00:01:57.679Z,39.3
2019-02-12T00:02:57.215Z,39.29
2019-02-12T00:03:56.709Z,39.28
2019-02-12T00:04:56.786Z,39.29
2019-02-12T00:05:56.716Z,39.26
2019-02-12T00:06:56.320Z,39.29
2019-02-12T00:07:56.333Z,39.28
2019-02-12T00:08:56.948Z,39.29
2019-02-12T00:09:56.923Z,39.32
2019-02-12T00:10:56.532Z,39.32
2019-02-12T00:11:57.483Z,39.32
2019-02-12T00:12:57.041Z,39.29
2019-02-12T00:14:05.197Z,39.33
2019-02-12T00:14:56.362Z,39.32
2019-02-12T00:15:56.449Z,39.3
2019-02-12T00:16:56.402Z,39.33
2019-02-12T00:17:57.122Z,39.29
2019-02-12T00:18:56.489Z,39.34
2019-02-12T00:19:56.291Z,39.3
2019-02-12T00:20:56.371Z,39.27
2019-02-12T00:21:56.218Z,39.33
2019-02-12T00:22:56.416Z,39.33
2019-02-12T00:23:58.223Z,39.31
2019-02-12T00:24:56.249Z,39.31
2019-02-12T00:25:56.487Z,39.3
2019-02-12T00:26:58.236Z,39.29
2019-02-12T00:27:57.480Z,39.29
2019-02-12T00:28:56.831Z,39.33
2019-02-12T00:29:56.544Z,39.33
2019-02-12T00:30:56.457Z,39.28
2019-02-12T00:31:56.328Z,39.3
2019-02-12T00:32:56.316Z,39.29
2019-02-12T00:33:56.584Z,39.31
2019-02-12T00:34:56.895Z,39.29
2019-02-12T00:35:56.818Z,39.33
2019-02-12T00:36:56.396Z,39.33
2019-02-12T00:37:56.743Z,39.34
2019-02-12T00:38:56.832Z,39.3
2019-02-12T00:39:56.740Z,39.33
2019-02-12T00:40:56.857Z,39.33
2019-02-12T00:41:56.630Z,39.29
2019-02-12T00:42:56.580Z,39.31
2019-02-12T00:43:56.817Z,39.31
2019-02-12T00:44:56.453Z,39.29
2019-02-12T00:45:56.516Z,39.32
2019-02-12T00:46:56.296Z,39.3
2019-02-12T00:47:56.309Z,39.27
2019-02-12T00:48:56.704Z,39.31
2019-02-12T00:49:56.587Z,39.31
2019-02-12T00:50:56.727Z,39.28
2019-02-12T00:51:56.370Z,39.29
2019-02-12T00:52:56.227Z,39.3
2019-02-12T00:53:56.716Z,39.3
2019-02-12T00:54:56.324Z,39.29
2019-02-12T00:55:56.673Z,39.31
2019-02-12T00:56:56.883Z,39.3
2019-02-12T00:58:05.542Z,39.32
2019-02-12T00:58:56.155Z,39.35
2019-02-12T00:59:56.694Z,39.29
2019-02-12T01:00:56.271Z,39.33
2019-02-12T01:01:56.773Z,39.33
2019-02-12T01:02:56.811Z,39.33
2019-02-12T01:03:56.219Z,39.33
2019-02-12T01:04:56.351Z,39.32
2019-02-12T01:05:56.214Z,39.33
2019-02-12T01:06:57.239Z,39.35
2019-02-12T01:07:57.392Z,39.32
2019-02-12T01:08:56.518Z,39.33
2019-02-12T01:09:56.395Z,39.3
2019-02-12T01:10:57.358Z,39.32
2019-02-12T01:11:56.364Z,39.31
2019-02-12T01:12:56.794Z,39.31
2019-02-12T01:13:57.145Z,39.28
2019-02-12T01:14:56.368Z,39.3
2019-02-12T01:15:56.900Z,39.32
2019-02-12T01:16:56.808Z,39.31
2019-02-12T01:17:56.613Z,39.3
2019-02-12T01:18:56.720Z,39.3
2019-02-12T01:19:56.217Z,39.32
2019-02-12T01:20:56.743Z,39.31
2019-02-12T01:21:57.164Z,39.32
2019-02-12T01:22:56.665Z,39.31
2019-02-12T01:23:56.647Z,39.34
2019-02-12T01:24:56.710Z,39.31
2019-02-12T01:25:56.763Z,39.3
2019-02-12T01:26:58.130Z,39.3
2019-02-12T01:27:57.194Z,39.33
2019-02-12T01:28:56.174Z,39.31
2019-02-12T01:29:56.994Z,39.33
2019-02-12T01:30:56.797Z,39.33
2019-02-12T01:31:56.291Z,39.33
2019-02-12T01:32:56.358Z,39.33
2019-02-12T01:33:56.231Z,39.33
2019-02-12T01:34:56.339Z,39.37
2019-02-12T01:36:05.730Z,39.36
2019-02-12T01:36:56.931Z,39.37
2019-02-12T01:37:56.365Z,39.34
2019-02-12T01:38:56.095Z,39.33
2019-02-12T01:39:56.339Z,39.33
2019-02-12T01:40:58.264Z,39.3
2019-02-12T01:41:56.265Z,39.32
2019-02-12T01:42:57.241Z,39.3
2019-02-12T01:43:57.181Z,39.33
2019-02-12T01:44:56.341Z,39.34
2019-02-12T01:45:58.156Z,39.34
2019-02-12T01:46:56.338Z,39.34
2019-02-12T01:47:56.904Z,39.33
2019-02-12T01:48:56.313Z,39.31
2019-02-12T01:49:57.713Z,39.32
2019-02-12T01:50:57.140Z,39.3
2019-02-12T01:51:56.018Z,39.31
2019-02-12T01:52:56.556Z,39.31
2019-02-12T01:53:56.748Z,39.31
2019-02-12T01:54:56.573Z,39.31
2019-02-12T01:55:56.573Z,39.31
2019-02-12T01:56:56.879Z,39.34
2019-02-12T01:57:56.671Z,39.34
2019-02-12T01:58:56.664Z,39.32
2019-02-12T01:59:58.019Z,39.33
2019-02-12T02:00:56.099Z,39.32
2019-02-12T02:01:56.813Z,39.33
2019-02-12T02:02:56.194Z,39.28
2019-02-12T02:03:56.611Z,39.31
2019-02-12T02:04:56.949Z,39.32
2019-02-12T02:05:56.175Z,39.31
2019-02-12T02:06:56.309Z,39.32
2019-02-12T02:07:58.145Z,39.28
2019-02-12T02:08:56.655Z,39.34
2019-02-12T02:09:56.874Z,39.34
2019-02-12T02:10:56.317Z,39.29
2019-02-12T02:11:56.588Z,39.29
2019-02-12T02:12:56.791Z,39.33
2019-02-12T02:13:56.752Z,39.31
2019-02-12T02:14:56.301Z,39.28
2019-02-12T02:15:56.327Z,39.31
2019-02-12T02:16:56.440Z,39.32
2019-02-12T02:17:57.029Z,39.28
2019-02-12T02:18:56.917Z,39.33
2019-02-12T02:19:56.197Z,39.32
2019-02-12T02:20:57.194Z,39.32
2019-02-12T02:21:56.636Z,39.32
2019-02-12T02:22:56.450Z,39.31
2019-02-12T02:23:56.340Z,39.3
2019-02-12T02:24:56.651Z,39.31
2019-02-12T02:25:57.761Z,39.29
2019-02-12T02:26:56.233Z,39.3
2019-02-12T02:27:56.379Z,39.3
2019-02-12T02:28:56.663Z,39.29
2019-02-12T02:29:56.407Z,39.26
2019-02-12T02:30:56.427Z,39.27
2019-02-12T02:31:56.369Z,39.3
2019-02-12T02:32:57.729Z,39.31
2019-02-12T02:33:56.737Z,39.31
2019-02-12T02:34:56.295Z,39.29
2019-02-12T02:35:56.745Z,39.31
2019-02-12T02:36:56.644Z,39.29
2019-02-12T02:37:56.668Z,39.27
2019-02-12T02:38:56.715Z,39.3
2019-02-12T02:39:56.573Z,39.3
2019-02-12T02:40:56.571Z,39.28
2019-02-12T02:41:56.178Z,39.32
2019-02-12T02:42:56.282Z,39.33
2019-02-12T02:43:56.408Z,39.31
2019-02-12T02:44:56.469Z,39.3
2019-02-12T02:45:56.140Z,39.35
2019-02-12T02:46:56.930Z,39.28
2019-02-12T02:47:56.956Z,39.27
2019-02-12T02:48:56.157Z,39.3
2019-02-12T02:49:56.721Z,39.33
2019-02-12T02:50:56.307Z,39.32
2019-02-12T02:51:58.176Z,39.25
2019-02-12T02:52:56.179Z,39.29
2019-02-12T02:53:56.269Z,39.29
2019-02-12T02:54:56.411Z,39.32
2019-02-12T02:55:56.595Z,39.33
2019-02-12T02:56:57.421Z,39.3
2019-02-12T02:57:56.272Z,39.28
2019-02-12T02:58:56.253Z,39.3
2019-02-12T02:59:56.255Z,39.3
2019-02-12T03:00:57.313Z,39.32
2019-02-12T03:01:56.301Z,39.33
2019-02-12T03:02:56.437Z,39.32
2019-02-12T03:03:56.183Z,39.31
2019-02-12T03:04:56.591Z,39.34
2019-02-12T03:05:57.081Z,39.33
2019-02-12T03:06:57.687Z,39.34
2019-02-12T03:07:56.216Z,39.32
2019-02-12T03:08:56.273Z,39.35
2019-02-12T03:09:56.506Z,39.3
2019-02-12T03:10:57.440Z,39.28
2019-02-12T03:11:56.519Z,39.33
2019-02-12T03:12:57.024Z,39.31
2019-02-12T03:13:56.387Z,39.34
2019-02-12T03:14:56.545Z,39.32
2019-02-12T03:15:56.330Z,39.35
2019-02-12T03:16:57.979Z,39.34
2019-02-12T03:17:56.105Z,39.33
2019-02-12T03:18:56.507Z,39.3
2019-02-12T03:19:56.328Z,39.31
2019-02-12T03:20:56.275Z,39.31
2019-02-12T03:22:04.062Z,39.31
2019-02-12T03:22:57.144Z,39.31
2019-02-12T03:23:56.809Z,39.32
2019-02-12T03:24:58.205Z,39.32
2019-02-12T03:25:57.058Z,39.32
2019-02-12T03:26:58.136Z,39.32
2019-02-12T03:27:56.050Z,39.33
2019-02-12T03:28:56.780Z,39.3
2019-02-12T03:29:56.671Z,39.33
2019-02-12T03:30:57.168Z,39.37
2019-02-12T03:31:57.249Z,39.29
2019-02-12T03:32:56.378Z,39.28
2019-02-12T03:33:56.787Z,39.32
2019-02-12T03:34:57.150Z,39.33
2019-02-12T03:35:56.077Z,39.3
2019-02-12T03:36:56.396Z,39.32
2019-02-12T03:37:57.598Z,39.31
2019-02-12T03:38:57.682Z,39.34
2019-02-12T03:39:58.101Z,39.31
2019-02-12T03:40:56.882Z,39.33
2019-02-12T03:41:57.143Z,39.32
2019-02-12T03:42:56.568Z,39.33
2019-02-12T03:43:56.823Z,39.29
2019-02-12T03:44:56.540Z,39.32
2019-02-12T03:45:56.302Z,39.31
2019-02-12T03:46:56.236Z,39.33
2019-02-12T03:47:56.611Z,39.3
2019-02-12T03:48:57.680Z,39.3
2019-02-12T03:49:56.455Z,39.28
2019-02-12T03:50:56.815Z,39.3
2019-02-12T03:51:56.876Z,39.31
2019-02-12T03:52:56.680Z,39.32
2019-02-12T03:53:56.819Z,39.32
2019-02-12T03:54:56.328Z,39.31
2019-02-12T03:55:56.604Z,39.32
2019-02-12T03:56:56.599Z,39.31
2019-02-12T03:57:56.607Z,39.31
2019-02-12T03:58:56.340Z,39.32
2019-02-12T03:59:56.629Z,39.35
2019-02-12T04:00:56.347Z,39.35
2019-02-12T04:01:56.191Z,39.35
2019-02-12T04:02:57.478Z,39.35
2019-02-12T04:03:56.954Z,39.34
2019-02-12T04:04:56.836Z,39.33
2019-02-12T04:05:56.684Z,39.32
2019-02-12T04:06:56.266Z,39.32
2019-02-12T04:07:56.988Z,39.29
2019-02-12T04:08:56.898Z,39.3
2019-02-12T04:09:56.503Z,39.33
2019-02-12T04:10:56.384Z,39.29
2019-02-12T04:11:56.618Z,39.36
2019-02-12T04:12:56.097Z,39.37
2019-02-12T04:13:56.412Z,39.34
2019-02-12T04:14:56.866Z,39.36
2019-02-12T04:15:56.327Z,39.33
2019-02-12T04:16:56.430Z,39.33
2019-02-12T04:17:56.454Z,39.34
2019-02-12T04:18:56.254Z,39.33
2019-02-12T04:19:56.871Z,39.32
2019-02-12T04:20:56.256Z,39.32
2019-02-12T04:21:56.378Z,39.33
2019-02-12T04:22:56.770Z,39.33
2019-02-12T04:23:56.345Z,39.32
2019-02-12T04:24:56.811Z,39.33
2019-02-12T04:25:56.331Z,39.34
2019-02-12T04:26:56.639Z,39.34
2019-02-12T04:27:56.848Z,39.34
2019-02-12T04:28:57.939Z,39.34
2019-02-12T04:29:56.899Z,39.34
2019-02-12T04:30:56.273Z,39.32
2019-02-12T04:31:56.419Z,39.32
2019-02-12T04:32:56.233Z,39.35
2019-02-12T04:33:56.629Z,39.35
2019-02-12T04:34:56.179Z,39.32
2019-02-12T04:35:56.230Z,39.33
2019-02-12T04:36:56.269Z,39.35
2019-02-12T04:37:56.607Z,39.32
2019-02-12T04:38:56.606Z,39.32
2019-02-12T04:39:56.279Z,39.3
2019-02-12T04:40:56.525Z,39.31
2019-02-12T04:41:58.111Z,39.3
2019-02-12T04:42:56.733Z,39.37
2019-02-12T04:43:56.713Z,39.32
2019-02-12T04:44:56.658Z,39.31
2019-02-12T04:45:56.222Z,39.32
2019-02-12T04:46:56.328Z,39.31
2019-02-12T04:47:56.011Z,39.35
2019-02-12T04:48:56.411Z,39.31
2019-02-12T04:49:58.143Z,39.36
2019-02-12T04:50:56.063Z,39.33
2019-02-12T04:51:56.227Z,39.36
2019-02-12T04:52:56.358Z,39.34
2019-02-12T04:53:56.125Z,39.33
2019-02-12T04:54:56.277Z,39.34
2019-02-12T04:55:56.392Z,39.31
2019-02-12T04:56:56.455Z,39.28
2019-02-12T04:57:56.079Z,39.28
2019-02-12T04:58:56.111Z,39.22
2019-02-12T04:59:56.872Z,39.28
2019-02-12T05:00:56.548Z,39.28
2019-02-12T05:01:56.643Z,39.35
2019-02-12T05:02:56.166Z,39.36
2019-02-12T05:03:58.146Z,39.38
2019-02-12T05:04:56.447Z,39.39
2019-02-12T05:05:57.826Z,39.41
2019-02-12T05:06:55.965Z,39.45
2019-02-12T05:07:56.278Z,39.47
2019-02-12T05:08:58.074Z,39.4
2019-02-12T05:09:57.255Z,39.4
2019-02-12T05:10:56.143Z,39.39
2019-02-12T05:11:56.440Z,39.35
2019-02-12T05:12:56.950Z,39.33
2019-02-12T05:13:56.139Z,39.31
2019-02-12T05:14:56.307Z,39.25
2019-02-12T05:15:57.464Z,39.28
2019-02-12T05:16:56.168Z,39.25
2019-02-12T05:17:56.745Z,39.27
2019-02-12T05:18:56.773Z,39.25
2019-02-12T05:19:56.788Z,39.2
2019-02-12T05:20:56.711Z,39.23
2019-02-12T05:21:56.508Z,39.2
2019-02-12T05:23:05.033Z,39.18
2019-02-12T05:23:59.307Z,39.18
2019-02-12T05:24:56.726Z,39.17
2019-02-12T05:25:57.742Z,39.18
2019-02-12T05:26:56.950Z,39.13
2019-02-12T05:27:56.594Z,39.18
2019-02-12T05:28:57.038Z,39.16
2019-02-12T05:29:56.501Z,39.14
2019-02-12T05:30:57.085Z,39.17
2019-02-12T05:31:56.207Z,39.17
2019-02-12T05:32:56.294Z,39.15
2019-02-12T05:33:56.388Z,39.12
2019-02-12T05:34:56.836Z,39.14
2019-02-12T05:35:56.930Z,39.16
2019-02-12T05:36:56.361Z,39.16
2019-02-12T05:37:56.557Z,39.16
2019-02-12T05:38:56.372Z,39.14
2019-02-12T05:39:56.175Z,39.12
2019-02-12T05:40:57.067Z,39.08
2019-02-12T05:41:56.721Z,39.12
2019-02-12T05:42:56.629Z,39.12
2019-02-12T05:43:56.315Z,39.13
2019-02-12T05:44:56.515Z,39.12
2019-02-12T05:45:56.881Z,39.14
2019-02-12T05:46:56.682Z,39.09
2019-02-12T05:47:56.142Z,39.13
2019-02-12T05:48:56.910Z,39.13
2019-02-12T05:49:56.071Z,39.13
2019-02-12T05:50:56.812Z,39.11
2019-02-12T05:51:57.321Z,39.12
2019-02-12T05:52:56.304Z,39.1
2019-02-12T05:53:56.777Z,39.07
2019-02-12T05:54:56.758Z,39.1
2019-02-12T05:55:56.449Z,39.08
2019-02-12T05:56:56.580Z,39.11
2019-02-12T05:57:56.658Z,39.1
2019-02-12T05:58:56.131Z,39.06
2019-02-12T05:59:56.697Z,39
2019-02-12T06:00:56.771Z,39.1
2019-02-12T06:01:56.145Z,39.11
2019-02-12T06:02:56.797Z,39.07
2019-02-12T06:04:05.563Z,39.08
2019-02-12T06:04:56.001Z,39.11
2019-02-12T06:05:58.153Z,39.05
2019-02-12T06:06:56.728Z,39.05
2019-02-12T06:07:56.517Z,39.08
2019-02-12T06:08:56.105Z,39.07
2019-02-12T06:09:56.946Z,39.09
2019-02-12T06:10:57.501Z,39.09
2019-02-12T06:11:56.760Z,39.1
2019-02-12T06:12:56.091Z,39.07
2019-02-12T06:13:56.596Z,39.1
2019-02-12T06:14:57.185Z,39.1
2019-02-12T06:15:56.643Z,39.1
2019-02-12T06:16:56.045Z,39.12
2019-02-12T06:17:57.197Z,39.06
2019-02-12T06:18:56.372Z,39.1
2019-02-12T06:19:56.155Z,39.13
2019-02-12T06:20:56.372Z,39.12
2019-02-12T06:21:56.241Z,39.06
2019-02-12T06:23:04.202Z,39.09
2019-02-12T06:23:57.042Z,39.14
2019-02-12T06:24:56.349Z,39.11
2019-02-12T06:25:56.300Z,39.09
2019-02-12T06:26:56.554Z,39.11
2019-02-12T06:27:56.558Z,39.15
2019-02-12T06:28:57.060Z,39.11
2019-02-12T06:29:56.833Z,39.15
2019-02-12T06:30:56.034Z,39.11
2019-02-12T06:31:56.949Z,39.15
2019-02-12T06:32:57.025Z,39.11
2019-02-12T06:33:57.242Z,39.11
2019-02-12T06:34:56.389Z,39.14
2019-02-12T06:35:56.463Z,39.16
2019-02-12T06:36:56.727Z,39.11
2019-02-12T06:37:56.745Z,39.15
2019-02-12T06:38:56.659Z,39.15
2019-02-12T06:39:56.511Z,39.12
2019-02-12T06:40:56.252Z,39.18
2019-02-12T06:41:57.497Z,39.15
2019-02-12T06:42:58.078Z,39.13
2019-02-12T06:43:56.452Z,39.18
2019-02-12T06:44:56.894Z,39.19
2019-02-12T06:45:58.114Z,39.17
2019-02-12T06:46:57.236Z,39.21
2019-02-12T06:47:57.159Z,39.17
2019-02-12T06:48:56.619Z,39.11
2019-02-12T06:49:56.876Z,39.21
2019-02-12T06:50:57.047Z,39.17
2019-02-12T06:51:57.018Z,39.19
2019-02-12T06:52:56.056Z,39.18
2019-02-12T06:53:56.880Z,39.16
2019-02-12T06:54:56.077Z,39.2
2019-02-12T06:55:56.627Z,39.13
2019-02-12T06:56:57.037Z,39.14
2019-02-12T06:57:57.282Z,39.16
2019-02-12T06:58:58.043Z,39.17
2019-02-12T06:59:56.478Z,39.13
2019-02-12T07:00:57.121Z,39.09
2019-02-12T07:01:56.413Z,39.11
2019-02-12T07:02:56.355Z,39.11
2019-02-12T07:03:56.842Z,39.06
2019-02-12T07:04:56.613Z,39.06
2019-02-12T07:05:56.318Z,39.07
2019-02-12T07:06:56.630Z,39.01
2019-02-12T07:07:56.848Z,39.02
2019-02-12T07:08:56.670Z,39.08
2019-02-12T07:09:56.082Z,39.11
2019-02-12T07:10:56.147Z,39.03
2019-02-12T07:11:56.579Z,39.01
2019-02-12T07:12:56.075Z,39.02
2019-02-12T07:13:58.002Z,39.07
2019-02-12T07:14:56.645Z,38.97
2019-02-12T07:15:57.231Z,39
2019-02-12T07:16:57.123Z,39
2019-02-12T07:17:56.827Z,39.06
2019-02-12T07:18:56.719Z,38.97
2019-02-12T07:19:56.735Z,38.99
2019-02-12T07:20:56.126Z,39
2019-02-12T07:21:56.160Z,39
2019-02-12T07:22:56.643Z,38.99
2019-02-12T07:23:56.235Z,39
2019-02-12T07:24:56.541Z,39.05
2019-02-12T07:25:56.303Z,39.01
2019-02-12T07:26:56.332Z,39.07
2019-02-12T07:27:56.377Z,39.02
2019-02-12T07:28:56.235Z,39.05
2019-02-12T07:29:56.701Z,38.32
2019-02-12T07:30:56.199Z,39.05
2019-02-12T07:31:56.214Z,38.48
2019-02-12T07:32:56.694Z,38.41
2019-02-12T07:33:56.246Z,38.55
2019-02-12T07:34:56.265Z,38.7
2019-02-12T07:35:56.656Z,38.72
2019-02-12T07:36:56.301Z,38.81
2019-02-12T07:37:56.664Z,38.84
2019-02-12T07:38:56.506Z,38.84
2019-02-12T07:39:56.361Z,38.79
2019-02-12T07:40:56.373Z,38.82
2019-02-12T07:41:56.466Z,38.83
2019-02-12T07:42:56.309Z,38.85
2019-02-12T07:43:56.150Z,38.79
2019-02-12T07:44:56.685Z,38.84
2019-02-12T07:45:56.042Z,38.81
2019-02-12T07:46:56.211Z,38.82
2019-02-12T07:47:56.319Z,38.79
2019-02-12T07:48:56.229Z,38.79
2019-02-12T07:49:56.076Z,38.78
2019-02-12T07:50:56.098Z,38.77
2019-02-12T07:51:56.016Z,38.79
2019-02-12T07:52:57.398Z,38.77
2019-02-12T07:53:56.006Z,38.76
2019-02-12T07:54:56.611Z,38.74
2019-02-12T07:55:56.278Z,38.75
2019-02-12T07:56:56.181Z,38.74
2019-02-12T07:57:56.329Z,38.75
2019-02-12T07:58:57.245Z,38.75
2019-02-12T07:59:56.127Z,38.75
2019-02-12T08:00:57.201Z,38.73
2019-02-12T08:01:56.035Z,38.77
2019-02-12T08:02:56.131Z,38.76
2019-02-12T08:03:56.358Z,38.75
2019-02-12T08:04:56.414Z,38.74
2019-02-12T08:05:56.758Z,38.79
2019-02-12T08:06:57.185Z,38.75
2019-02-12T08:07:56.460Z,38.72
2019-02-12T08:08:56.314Z,38.73
2019-02-12T08:09:56.305Z,38.71
2019-02-12T08:10:56.266Z,38.72
2019-02-12T08:11:56.708Z,38.72
2019-02-12T08:12:56.146Z,38.68
2019-02-12T08:13:56.930Z,38.7
2019-02-12T08:14:56.572Z,38.68
2019-02-12T08:15:56.463Z,38.71
2019-02-12T08:16:56.490Z,38.71
2019-02-12T08:17:56.215Z,38.7
2019-02-12T08:18:56.755Z,38.69
2019-02-12T08:19:58.104Z,38.74
2019-02-12T08:20:56.280Z,38.73
2019-02-12T08:21:56.654Z,38.72
2019-02-12T08:22:56.774Z,38.73
2019-02-12T08:23:56.684Z,38.71
2019-02-12T08:24:56.695Z,38.68
2019-02-12T08:25:56.202Z,38.71
2019-02-12T08:26:56.028Z,38.7
2019-02-12T08:27:56.746Z,38.71
2019-02-12T08:28:56.407Z,38.66
2019-02-12T08:29:56.129Z,38.67
2019-02-12T08:30:56.628Z,38.68
2019-02-12T08:31:56.725Z,38.67
2019-02-12T08:32:56.748Z,38.69
2019-02-12T08:33:56.470Z,38.7
2019-02-12T08:34:56.550Z,38.66
2019-02-12T08:35:57.768Z,38.65
2019-02-12T08:36:58.072Z,38.66
2019-02-12T08:37:56.354Z,38.66
2019-02-12T08:38:56.685Z,38.62
2019-02-12T08:39:56.673Z,38.64
2019-02-12T08:40:57.932Z,38.61
2019-02-12T08:41:57.242Z,38.64
2019-02-12T08:42:56.714Z,38.64
2019-02-12T08:43:57.020Z,38.65
2019-02-12T08:44:58.084Z,38.6
2019-02-12T08:45:57.050Z,38.61
2019-02-12T08:46:56.678Z,38.65
2019-02-12T08:47:56.074Z,38.62
2019-02-12T08:48:56.213Z,38.6
2019-02-12T08:49:57.215Z,38.63
2019-02-12T08:50:57.188Z,38.61
2019-02-12T08:51:56.343Z,38.59
2019-02-12T08:52:56.576Z,38.57
2019-02-12T08:53:56.695Z,38.56
2019-02-12T08:54:56.670Z,38.56
2019-02-12T08:55:56.739Z,38.55
2019-02-12T08:56:56.333Z,38.59
2019-02-12T08:57:56.489Z,38.58
2019-02-12T08:58:56.598Z,38.55
2019-02-12T08:59:56.314Z,38.56
2019-02-12T09:00:56.484Z,38.56
2019-02-12T09:01:56.666Z,38.6
2019-02-12T09:02:56.555Z,38.56
2019-02-12T09:03:56.349Z,38.51
2019-02-12T09:04:56.982Z,38.52
2019-02-12T09:05:56.077Z,38.55
2019-02-12T09:06:56.316Z,38.51
2019-02-12T09:07:56.378Z,38.53
2019-02-12T09:08:56.606Z,38.5
2019-02-12T09:09:57.010Z,38.54
2019-02-12T09:10:56.394Z,38.51
2019-02-12T09:11:56.194Z,38.51
2019-02-12T09:12:56.407Z,38.48
2019-02-12T09:13:56.853Z,38.51
2019-02-12T09:14:56.459Z,38.5
2019-02-12T09:15:56.458Z,38.48
2019-02-12T09:16:56.353Z,38.51
2019-02-12T09:17:56.253Z,38.5
2019-02-12T09:18:58.034Z,38.44
2019-02-12T09:19:56.276Z,38.68
2019-02-12T09:20:56.303Z,38.49
2019-02-12T09:21:56.157Z,38.66
2019-02-12T09:22:56.269Z,38.73
2019-02-12T09:24:03.074Z,38.82
2019-02-12T09:24:56.285Z,38.78
2019-02-12T09:25:56.418Z,38.71
2019-02-12T09:26:56.337Z,38.56
2019-02-12T09:27:56.159Z,38.56
2019-02-12T09:28:55.922Z,38.66
2019-02-12T09:29:56.352Z,38.57
2019-02-12T09:30:57.597Z,39.2
2019-02-12T09:31:56.128Z,39.3
2019-02-12T09:32:56.208Z,39.4
2019-02-12T09:33:56.845Z,39.54
2019-02-12T09:34:56.771Z,39.43
2019-02-12T09:35:56.545Z,39.77
2019-02-12T09:36:56.383Z,39.41
2019-02-12T09:37:56.936Z,40.01
2019-02-12T09:38:56.505Z,39.69
2019-02-12T09:39:56.128Z,39.54
2019-02-12T09:40:56.021Z,39.52
2019-02-12T09:41:57.362Z,39.52
2019-02-12T09:42:57.321Z,39.67
2019-02-12T09:43:56.464Z,39.58
2019-02-12T09:44:55.989Z,39.43
2019-02-12T09:45:56.154Z,39.44
2019-02-12T09:46:56.178Z,39.54
2019-02-12T09:47:57.955Z,40
2019-02-12T09:48:56.053Z,39.54
2019-02-12T09:49:57.897Z,39.52
2019-02-12T09:50:56.021Z,39.78
2019-02-12T09:51:57.103Z,40.31
2019-02-12T09:52:56.590Z,39.85
2019-02-12T09:53:56.700Z,39.69
2019-02-12T09:54:57.855Z,40.08
2019-02-12T09:55:56.523Z,39.75
2019-02-12T09:56:56.205Z,39.67
2019-02-12T09:57:56.931Z,39.68
2019-02-12T09:58:56.990Z,39.84
2019-02-12T09:59:57.085Z,39.54
2019-02-12T10:00:56.354Z,39.8
2019-02-12T10:01:55.976Z,39.44
2019-02-12T10:02:56.010Z,39.63
2019-02-12T10:03:58.220Z,39.62
2019-02-12T10:04:56.424Z,39.74
2019-02-12T10:05:56.887Z,40.04
2019-02-12T10:06:56.374Z,39.77
2019-02-12T10:07:56.162Z,39.5
2019-02-12T10:08:56.129Z,39.84
2019-02-12T10:09:56.305Z,39.77
2019-02-12T10:10:57.463Z,39.72
2019-02-12T10:11:56.418Z,39.59
2019-02-12T10:12:56.309Z,39.43
2019-02-12T10:13:55.993Z,39.55
2019-02-12T10:14:56.213Z,39.2
2019-02-12T10:15:56.031Z,39.24
2019-02-12T10:16:56.773Z,40.09
2019-02-12T10:17:57.001Z,39.45
2019-02-12T10:18:55.945Z,39.12
2019-02-12T10:19:55.986Z,39.59
2019-02-12T10:20:56.338Z,39.45
2019-02-12T10:21:56.150Z,39.93
2019-02-12T10:22:55.924Z,39.91
2019-02-12T10:23:56.932Z,39.23
2019-02-12T10:24:57.131Z,39.7
2019-02-12T10:25:57.388Z,39.48
2019-02-12T10:26:56.752Z,39.27
2019-02-12T10:27:56.640Z,39.58
2019-02-12T10:28:55.970Z,39.76
2019-02-12T10:29:56.269Z,39.41
2019-02-12T10:30:56.541Z,39.31
2019-02-12T10:31:56.166Z,39.72
2019-02-12T10:32:56.155Z,39.23
2019-02-12T10:33:56.256Z,39.19
2019-02-12T10:34:57.951Z,39.5
2019-02-12T10:35:56.405Z,39.69
2019-02-12T10:36:56.133Z,39.31
2019-02-12T10:37:56.148Z,39.63
2019-02-12T10:38:56.616Z,39.22
2019-02-12T10:39:36.446Z,42.86
2019-02-12T10:40:35.761Z,39.33
2019-02-12T10:41:35.952Z,39.18
2019-02-12T10:42:15.313Z,39.15
2019-02-12T10:43:15.260Z,38.94
2019-02-12T10:44:15.866Z,38.92
2019-02-12T10:45:15.649Z,38.78
2019-02-12T10:46:16.347Z,38.74
2019-02-12T10:47:15.003Z,38.71
2019-02-12T10:48:15.059Z,38.61
2019-02-12T10:49:15.259Z,38.58
2019-02-12T10:50:15.169Z,38.54
2019-02-12T10:51:14.899Z,38.5
2019-02-12T10:52:16.560Z,38.49
2019-02-12T10:53:15.292Z,38.43
2019-02-12T10:54:18.899Z,38.35
2019-02-12T10:55:19.793Z,38.38
2019-02-12T10:56:19.702Z,38.07
2019-02-12T10:57:19.626Z,38.17
2019-02-12T10:58:19.295Z,40.02
2019-02-12T10:59:27.033Z,38.16
2019-02-12T11:00:27.132Z,38.46
2019-02-12T11:01:27.078Z,38.3
2019-02-12T11:02:27.641Z,38.3
2019-02-12T11:03:27.480Z,38.13
2019-02-12T11:04:33.733Z,37.94
2019-02-12T11:05:27.784Z,38.02
2019-02-12T11:06:27.686Z,38.01
2019-02-12T11:07:27.200Z,38.08
2019-02-12T11:08:27.670Z,38.11
2019-02-12T11:09:27.025Z,37.9
2019-02-12T11:10:27.656Z,37.87
2019-02-12T11:11:27.294Z,37.84
2019-02-12T11:12:27.173Z,37.95
2019-02-12T11:13:27.784Z,37.85
2019-02-12T11:14:27.808Z,37.71
2019-02-12T11:15:27.356Z,37.86
2019-02-12T11:16:28.927Z,37.7
2019-02-12T11:17:27.476Z,37.73
2019-02-12T11:18:28.062Z,37.78
2019-02-12T11:19:27.662Z,37.78
2019-02-12T11:20:27.563Z,37.58
2019-02-12T11:21:27.343Z,37.63
2019-02-12T11:22:27.690Z,37.62
2019-02-12T11:23:27.687Z,37.57
2019-02-12T11:24:27.439Z,37.6
2019-02-12T11:25:28.021Z,37.63
2019-02-12T11:26:27.610Z,37.56
2019-02-12T11:27:28.467Z,37.65
2019-02-12T11:28:27.969Z,37.59
2019-02-12T11:29:27.399Z,37.58
2019-02-12T11:30:27.448Z,37.47
2019-02-12T11:31:28.118Z,37.49
2019-02-12T11:32:27.808Z,37.53
2019-02-12T11:33:27.589Z,37.5
2019-02-12T11:34:27.492Z,37.59
2019-02-12T11:35:27.474Z,37.53
2019-02-12T11:36:28.113Z,37.51
2019-02-12T11:37:27.281Z,37.55
2019-02-12T11:38:27.442Z,37.58
2019-02-12T11:39:28.366Z,37.57
2019-02-12T11:40:27.406Z,37.59
2019-02-12T11:41:28.079Z,37.56
2019-02-12T11:42:27.557Z,37.59
2019-02-12T11:43:28.328Z,37.56
2019-02-12T11:44:27.912Z,37.56
2019-02-12T11:45:27.644Z,37.53
2019-02-12T11:46:29.041Z,37.5
2019-02-12T11:47:27.542Z,37.5
2019-02-12T11:48:27.878Z,37.5
2019-02-12T11:49:27.777Z,37.48
2019-02-12T11:50:28.428Z,37.49
2019-02-12T11:51:27.847Z,37.49
2019-02-12T11:52:27.897Z,37.52
2019-02-12T11:53:28.211Z,37.5
2019-02-12T11:54:27.659Z,37.51
2019-02-12T11:55:27.575Z,37.43
2019-02-12T11:56:28.170Z,37.44
2019-02-12T11:57:28.060Z,37.51
2019-02-12T11:58:28.882Z,37.44
2019-02-12T11:59:27.900Z,37.45
2019-02-12T12:00:28.014Z,37.38
2019-02-12T12:01:27.704Z,37.4
2019-02-12T12:02:28.565Z,37.42
2019-02-12T12:03:27.989Z,37.39
2019-02-12T12:04:27.472Z,37.42
2019-02-12T12:05:27.599Z,37.48
2019-02-12T12:06:27.748Z,37.4
2019-02-12T12:07:27.860Z,37.42
2019-02-12T12:08:27.644Z,37.37
2019-02-12T12:09:27.239Z,37.39
2019-02-12T12:10:27.705Z,37.38
2019-02-12T12:11:27.403Z,37.34
2019-02-12T12:12:27.428Z,37.38
2019-02-12T12:13:27.320Z,37.36
2019-02-12T12:14:27.099Z,37.31
2019-02-12T12:15:27.159Z,37.3
2019-02-12T12:16:27.621Z,37.35
2019-02-12T12:17:27.429Z,37.34
2019-02-12T12:18:27.330Z,37.26
2019-02-12T12:19:27.176Z,37.32
2019-02-12T12:20:27.858Z,37.27
2019-02-12T12:21:27.470Z,37.21
2019-02-12T12:22:27.279Z,37.32
2019-02-12T12:23:28.200Z,37.27
2019-02-12T12:24:28.000Z,37.27
2019-02-12T12:25:29.221Z,37.27
2019-02-12T12:26:27.297Z,37.19
2019-02-12T12:27:27.928Z,37.17
2019-02-12T12:28:27.624Z,37.15
2019-02-12T12:29:27.211Z,37.16
2019-02-12T12:30:27.256Z,37.23
2019-02-12T12:31:27.553Z,37.18
2019-02-12T12:32:27.652Z,37.14
2019-02-12T12:33:27.665Z,37.2
2019-02-12T12:34:27.562Z,37.2
2019-02-12T12:35:27.326Z,37.19
2019-02-12T12:36:27.398Z,37.22
2019-02-12T12:37:27.583Z,37.13
2019-02-12T12:38:27.516Z,37.11
2019-02-12T12:39:27.237Z,37.14
2019-02-12T12:40:27.423Z,37.13
2019-02-12T12:41:27.306Z,37.16
2019-02-12T12:42:27.272Z,37.14
2019-02-12T12:43:27.374Z,37.12
2019-02-12T12:44:27.242Z,37.16
2019-02-12T12:45:27.317Z,37.12
2019-02-12T12:46:27.502Z,37.13
2019-02-12T12:47:27.420Z,37.1
2019-02-12T12:48:27.582Z,37.11
2019-02-12T12:49:27.738Z,37.1
2019-02-12T12:50:27.384Z,37.1
2019-02-12T12:51:27.374Z,37.06
2019-02-12T12:52:27.457Z,37.08
2019-02-12T12:53:27.636Z,37.11
2019-02-12T12:54:27.875Z,37.04
2019-02-12T12:55:27.438Z,37.04
2019-02-12T12:56:27.888Z,37.09